sensor_id;sensor_type;location;lat;lon;timestamp;temperature;humidity
31783;DHT22;18351;47.560;9.708;2024-03-22T00:01:48;8.70;99.90
31783;DHT22;18351;47.560;9.708;2024-03-22T00:04:14;8.60;99.90
31783;DHT22;18351;47.560;9.708;2024-03-22T00:06:45;8.60;99.90
31783;DHT22;18351;47.560;9.708;2024-03-22T00:09:11;8.50;99.90
31783;DHT22;18351;47.560;9.708;2024-03-22T00:11:38;8.60;99.90
31783;DHT22;18351;47.560;9.708;2024-03-22T00:14:04;8.60;99.90
31783;DHT22;18351;47.560;9.708;2024-03-22T00:16:30;8.60;99.90
31783;DHT22;18351;47.560;9.708;2024-03-22T00:18:55;8.50;99.90
31783;DHT22;18351;47.560;9.708;2024-03-22T00:21:22;8.50;99.90
31783;DHT22;18351;47.560;9.708;2024-03-22T00:23:48;8.40;99.90
31783;DHT22;18351;47.560;9.708;2024-03-22T00:26:13;8.40;99.90
31783;DHT22;18351;47.560;9.708;2024-03-22T00:28:39;8.30;99.90
31783;DHT22;18351;47.560;9.708;2024-03-22T00:31:05;8.20;99.90
31783;DHT22;18351;47.560;9.708;2024-03-22T00:33:30;8.20;99.90
31783;DHT22;18351;47.560;9.708;2024-03-22T00:35:57;8.20;99.90
31783;DHT22;18351;47.560;9.708;2024-03-22T00:38:22;8.10;99.90
31783;DHT22;18351;47.560;9.708;2024-03-22T00:40:48;8.10;99.90
31783;DHT22;18351;47.560;9.708;2024-03-22T00:43:13;8.00;99.90
31783;DHT22;18351;47.560;9.708;2024-03-22T00:45:39;8.00;99.90
31783;DHT22;18351;47.560;9.708;2024-03-22T00:48:05;8.00;99.90
31783;DHT22;18351;47.560;9.708;2024-03-22T00:50:30;7.90;99.90
31783;DHT22;18351;47.560;9.708;2024-03-22T00:52:56;7.80;99.90
31783;DHT22;18351;47.560;9.708;2024-03-22T00:55:22;7.80;99.90
31783;DHT22;18351;47.560;9.708;2024-03-22T00:57:48;7.70;99.90
31783;DHT22;18351;47.560;9.708;2024-03-22T01:00:14;7.70;99.90
31783;DHT22;18351;47.560;9.708;2024-03-22T01:02:41;7.60;99.90
31783;DHT22;18351;47.560;9.708;2024-03-22T01:05:06;7.60;99.90
31783;DHT22;18351;47.560;9.708;2024-03-22T01:07:32;7.50;99.90
31783;DHT22;18351;47.560;9.708;2024-03-22T01:09:57;7.50;99.90
31783;DHT22;18351;47.560;9.708;2024-03-22T01:12:23;7.40;99.90
31783;DHT22;18351;47.560;9.708;2024-03-22T01:14:49;7.40;99.90
31783;DHT22;18351;47.560;9.708;2024-03-22T01:17:14;7.20;99.90
31783;DHT22;18351;47.560;9.708;2024-03-22T01:19:40;7.20;99.90
31783;DHT22;18351;47.560;9.708;2024-03-22T01:22:05;7.10;99.90
31783;DHT22;18351;47.560;9.708;2024-03-22T01:24:31;7.10;99.90
31783;DHT22;18351;47.560;9.708;2024-03-22T01:26:56;7.00;99.90
31783;DHT22;18351;47.560;9.708;2024-03-22T01:29:22;7.00;99.90
31783;DHT22;18351;47.560;9.708;2024-03-22T01:31:47;7.00;99.90
31783;DHT22;18351;47.560;9.708;2024-03-22T01:34:13;7.10;99.90
31783;DHT22;18351;47.560;9.708;2024-03-22T01:36:40;7.00;99.90
31783;DHT22;18351;47.560;9.708;2024-03-22T01:39:05;7.00;99.90
31783;DHT22;18351;47.560;9.708;2024-03-22T01:41:31;7.00;99.90
31783;DHT22;18351;47.560;9.708;2024-03-22T01:43:57;7.00;99.90
31783;DHT22;18351;47.560;9.708;2024-03-22T01:46:23;7.00;99.90
31783;DHT22;18351;47.560;9.708;2024-03-22T01:48:49;6.90;99.90
31783;DHT22;18351;47.560;9.708;2024-03-22T01:51:15;6.90;99.90
31783;DHT22;18351;47.560;9.708;2024-03-22T01:53:41;6.90;99.90
31783;DHT22;18351;47.560;9.708;2024-03-22T01:56:07;6.80;99.90
31783;DHT22;18351;47.560;9.708;2024-03-22T01:58:33;6.90;99.90
31783;DHT22;18351;47.560;9.708;2024-03-22T02:00:58;6.90;99.90
31783;DHT22;18351;47.560;9.708;2024-03-22T02:03:24;6.90;99.90
31783;DHT22;18351;47.560;9.708;2024-03-22T02:05:49;6.90;99.90
31783;DHT22;18351;47.560;9.708;2024-03-22T02:08:15;6.90;99.90
31783;DHT22;18351;47.560;9.708;2024-03-22T02:10:41;6.90;99.90
31783;DHT22;18351;47.560;9.708;2024-03-22T02:13:06;6.90;99.90
31783;DHT22;18351;47.560;9.708;2024-03-22T02:15:32;6.90;99.90
31783;DHT22;18351;47.560;9.708;2024-03-22T02:17:58;6.80;99.90
31783;DHT22;18351;47.560;9.708;2024-03-22T02:20:23;6.70;99.90
31783;DHT22;18351;47.560;9.708;2024-03-22T02:22:49;6.70;99.90
31783;DHT22;18351;47.560;9.708;2024-03-22T02:25:15;6.60;99.90
31783;DHT22;18351;47.560;9.708;2024-03-22T02:27:41;6.70;99.90
31783;DHT22;18351;47.560;9.708;2024-03-22T02:30:07;6.70;99.90
31783;DHT22;18351;47.560;9.708;2024-03-22T02:32:33;6.70;99.90
31783;DHT22;18351;47.560;9.708;2024-03-22T02:34:58;6.60;99.90
31783;DHT22;18351;47.560;9.708;2024-03-22T02:37:24;6.70;99.90
31783;DHT22;18351;47.560;9.708;2024-03-22T02:39:49;6.60;99.90
31783;DHT22;18351;47.560;9.708;2024-03-22T02:42:15;6.60;99.90
31783;DHT22;18351;47.560;9.708;2024-03-22T02:44:41;6.60;99.90
31783;DHT22;18351;47.560;9.708;2024-03-22T02:47:11;6.60;99.90
31783;DHT22;18351;47.560;9.708;2024-03-22T02:49:40;6.60;99.90
31783;DHT22;18351;47.560;9.708;2024-03-22T02:52:05;6.50;99.90
31783;DHT22;18351;47.560;9.708;2024-03-22T02:54:31;6.60;99.90
31783;DHT22;18351;47.560;9.708;2024-03-22T02:56:56;6.60;99.90
31783;DHT22;18351;47.560;9.708;2024-03-22T02:59:25;6.50;99.90
31783;DHT22;18351;47.560;9.708;2024-03-22T03:01:51;6.50;99.90
31783;DHT22;18351;47.560;9.708;2024-03-22T03:04:17;6.40;99.90
31783;DHT22;18351;47.560;9.708;2024-03-22T03:06:43;6.40;99.90
31783;DHT22;18351;47.560;9.708;2024-03-22T03:09:11;6.30;99.90
31783;DHT22;18351;47.560;9.708;2024-03-22T03:11:38;6.30;99.90
31783;DHT22;18351;47.560;9.708;2024-03-22T03:14:04;6.30;99.90
31783;DHT22;18351;47.560;9.708;2024-03-22T03:16:29;6.30;99.90
31783;DHT22;18351;47.560;9.708;2024-03-22T03:18:55;6.20;99.90
31783;DHT22;18351;47.560;9.708;2024-03-22T03:21:20;6.30;99.90
31783;DHT22;18351;47.560;9.708;2024-03-22T03:23:46;6.30;99.90
31783;DHT22;18351;47.560;9.708;2024-03-22T03:26:12;6.30;99.90
31783;DHT22;18351;47.560;9.708;2024-03-22T03:28:37;6.30;99.90
31783;DHT22;18351;47.560;9.708;2024-03-22T03:31:03;6.40;99.90
31783;DHT22;18351;47.560;9.708;2024-03-22T03:33:28;6.50;99.90
31783;DHT22;18351;47.560;9.708;2024-03-22T03:35:54;6.50;99.90
31783;DHT22;18351;47.560;9.708;2024-03-22T03:38:19;6.50;99.90
31783;DHT22;18351;47.560;9.708;2024-03-22T03:40:46;6.50;99.90
31783;DHT22;18351;47.560;9.708;2024-03-22T03:43:12;6.60;99.90
31783;DHT22;18351;47.560;9.708;2024-03-22T03:45:37;6.60;99.90
31783;DHT22;18351;47.560;9.708;2024-03-22T03:48:03;6.60;99.90
31783;DHT22;18351;47.560;9.708;2024-03-22T03:50:29;6.60;99.90
31783;DHT22;18351;47.560;9.708;2024-03-22T03:52:55;6.70;99.90
31783;DHT22;18351;47.560;9.708;2024-03-22T03:55:22;6.70;99.90
31783;DHT22;18351;47.560;9.708;2024-03-22T03:57:47;6.80;99.90
31783;DHT22;18351;47.560;9.708;2024-03-22T04:00:15;6.80;99.90
31783;DHT22;18351;47.560;9.708;2024-03-22T04:02:40;6.80;99.90
31783;DHT22;18351;47.560;9.708;2024-03-22T04:05:06;6.70;99.90
31783;DHT22;18351;47.560;9.708;2024-03-22T04:07:32;6.70;99.90
31783;DHT22;18351;47.560;9.708;2024-03-22T04:09:58;6.70;99.90
31783;DHT22;18351;47.560;9.708;2024-03-22T04:12:26;6.70;99.90
31783;DHT22;18351;47.560;9.708;2024-03-22T04:14:52;6.70;99.90
31783;DHT22;18351;47.560;9.708;2024-03-22T04:17:17;6.80;99.90
31783;DHT22;18351;47.560;9.708;2024-03-22T04:19:43;6.80;99.90
31783;DHT22;18351;47.560;9.708;2024-03-22T04:22:09;6.70;99.90
31783;DHT22;18351;47.560;9.708;2024-03-22T04:24:34;6.70;99.90
31783;DHT22;18351;47.560;9.708;2024-03-22T04:27:00;6.80;99.90
31783;DHT22;18351;47.560;9.708;2024-03-22T04:29:25;6.80;99.90
31783;DHT22;18351;47.560;9.708;2024-03-22T04:31:51;6.80;99.90
31783;DHT22;18351;47.560;9.708;2024-03-22T04:34:16;6.90;99.90
31783;DHT22;18351;47.560;9.708;2024-03-22T04:36:42;6.80;99.90
31783;DHT22;18351;47.560;9.708;2024-03-22T04:39:08;6.80;99.90
31783;DHT22;18351;47.560;9.708;2024-03-22T04:41:35;6.80;99.90
31783;DHT22;18351;47.560;9.708;2024-03-22T04:44:00;6.80;99.90
31783;DHT22;18351;47.560;9.708;2024-03-22T04:46:26;6.80;99.90
31783;DHT22;18351;47.560;9.708;2024-03-22T04:48:52;6.80;99.90
31783;DHT22;18351;47.560;9.708;2024-03-22T04:51:17;6.90;99.90
31783;DHT22;18351;47.560;9.708;2024-03-22T04:53:43;7.00;99.90
31783;DHT22;18351;47.560;9.708;2024-03-22T04:56:09;7.00;99.90
31783;DHT22;18351;47.560;9.708;2024-03-22T04:58:35;7.00;99.90
31783;DHT22;18351;47.560;9.708;2024-03-22T05:01:00;7.10;99.90
31783;DHT22;18351;47.560;9.708;2024-03-22T05:03:26;7.10;99.90
31783;DHT22;18351;47.560;9.708;2024-03-22T05:05:51;7.10;99.90
31783;DHT22;18351;47.560;9.708;2024-03-22T05:08:17;7.20;99.90
31783;DHT22;18351;47.560;9.708;2024-03-22T05:10:43;7.10;99.90
31783;DHT22;18351;47.560;9.708;2024-03-22T05:13:09;7.20;99.90
31783;DHT22;18351;47.560;9.708;2024-03-22T05:15:34;7.30;99.90
31783;DHT22;18351;47.560;9.708;2024-03-22T05:18:00;7.30;99.90
31783;DHT22;18351;47.560;9.708;2024-03-22T05:20:26;7.40;99.90
31783;DHT22;18351;47.560;9.708;2024-03-22T05:22:52;7.40;99.90
31783;DHT22;18351;47.560;9.708;2024-03-22T05:25:17;7.40;99.90
31783;DHT22;18351;47.560;9.708;2024-03-22T05:27:44;7.40;99.90
31783;DHT22;18351;47.560;9.708;2024-03-22T05:30:11;7.50;99.90
31783;DHT22;18351;47.560;9.708;2024-03-22T05:32:37;7.50;99.90
31783;DHT22;18351;47.560;9.708;2024-03-22T05:35:02;7.60;99.90
31783;DHT22;18351;47.560;9.708;2024-03-22T05:37:28;7.60;99.90
31783;DHT22;18351;47.560;9.708;2024-03-22T05:39:54;7.70;99.90
31783;DHT22;18351;47.560;9.708;2024-03-22T05:42:20;7.70;99.90
31783;DHT22;18351;47.560;9.708;2024-03-22T05:44:45;7.80;99.90
31783;DHT22;18351;47.560;9.708;2024-03-22T05:47:11;7.90;99.90
31783;DHT22;18351;47.560;9.708;2024-03-22T05:49:37;8.00;99.90
31783;DHT22;18351;47.560;9.708;2024-03-22T05:52:02;8.00;99.90
31783;DHT22;18351;47.560;9.708;2024-03-22T05:54:28;8.10;99.90
31783;DHT22;18351;47.560;9.708;2024-03-22T05:56:54;8.20;99.90
31783;DHT22;18351;47.560;9.708;2024-03-22T05:59:20;8.20;99.90
31783;DHT22;18351;47.560;9.708;2024-03-22T06:01:45;8.30;99.90
31783;DHT22;18351;47.560;9.708;2024-03-22T06:04:11;8.20;99.90
31783;DHT22;18351;47.560;9.708;2024-03-22T06:06:36;8.30;99.90
31783;DHT22;18351;47.560;9.708;2024-03-22T06:09:03;8.40;99.90
31783;DHT22;18351;47.560;9.708;2024-03-22T06:11:32;8.40;99.90
31783;DHT22;18351;47.560;9.708;2024-03-22T06:13:58;8.40;99.90
31783;DHT22;18351;47.560;9.708;2024-03-22T06:16:23;8.40;99.90
31783;DHT22;18351;47.560;9.708;2024-03-22T06:18:49;8.40;99.90
31783;DHT22;18351;47.560;9.708;2024-03-22T06:21:14;8.50;99.90
31783;DHT22;18351;47.560;9.708;2024-03-22T06:23:40;8.50;99.90
31783;DHT22;18351;47.560;9.708;2024-03-22T06:26:07;8.60;99.90
31783;DHT22;18351;47.560;9.708;2024-03-22T06:28:32;8.60;99.90
31783;DHT22;18351;47.560;9.708;2024-03-22T06:30:58;8.70;99.90
31783;DHT22;18351;47.560;9.708;2024-03-22T06:33:23;8.70;99.90
31783;DHT22;18351;47.560;9.708;2024-03-22T06:35:49;8.80;99.90
31783;DHT22;18351;47.560;9.708;2024-03-22T06:38:15;8.80;99.90
31783;DHT22;18351;47.560;9.708;2024-03-22T06:40:40;9.00;99.90
31783;DHT22;18351;47.560;9.708;2024-03-22T06:43:06;9.00;99.90
31783;DHT22;18351;47.560;9.708;2024-03-22T06:45:31;9.10;99.90
31783;DHT22;18351;47.560;9.708;2024-03-22T06:47:57;9.20;99.90
31783;DHT22;18351;47.560;9.708;2024-03-22T06:50:22;9.30;99.90
31783;DHT22;18351;47.560;9.708;2024-03-22T06:52:55;9.40;99.90
31783;DHT22;18351;47.560;9.708;2024-03-22T06:55:21;9.50;99.90
31783;DHT22;18351;47.560;9.708;2024-03-22T06:57:50;9.60;99.90
31783;DHT22;18351;47.560;9.708;2024-03-22T07:00:16;9.70;99.90
31783;DHT22;18351;47.560;9.708;2024-03-22T07:02:42;9.80;99.90
31783;DHT22;18351;47.560;9.708;2024-03-22T07:05:08;9.90;99.90
31783;DHT22;18351;47.560;9.708;2024-03-22T07:07:34;10.00;99.90
31783;DHT22;18351;47.560;9.708;2024-03-22T07:10:00;10.10;99.90
31783;DHT22;18351;47.560;9.708;2024-03-22T07:12:25;10.20;99.90
31783;DHT22;18351;47.560;9.708;2024-03-22T07:14:51;10.30;99.90
31783;DHT22;18351;47.560;9.708;2024-03-22T07:17:16;10.30;99.90
31783;DHT22;18351;47.560;9.708;2024-03-22T07:19:42;10.40;99.90
31783;DHT22;18351;47.560;9.708;2024-03-22T07:22:08;10.50;99.90
31783;DHT22;18351;47.560;9.708;2024-03-22T07:24:34;10.60;99.90
31783;DHT22;18351;47.560;9.708;2024-03-22T07:26:59;10.60;99.90
31783;DHT22;18351;47.560;9.708;2024-03-22T07:29:25;10.70;99.90
31783;DHT22;18351;47.560;9.708;2024-03-22T07:31:50;10.70;99.90
31783;DHT22;18351;47.560;9.708;2024-03-22T07:34:16;10.70;99.90
31783;DHT22;18351;47.560;9.708;2024-03-22T07:36:41;10.80;99.90
31783;DHT22;18351;47.560;9.708;2024-03-22T07:39:07;10.80;99.90
31783;DHT22;18351;47.560;9.708;2024-03-22T07:41:33;10.80;99.90
31783;DHT22;18351;47.560;9.708;2024-03-22T07:43:59;10.90;99.90
31783;DHT22;18351;47.560;9.708;2024-03-22T07:46:26;11.00;99.90
31783;DHT22;18351;47.560;9.708;2024-03-22T07:48:51;11.10;99.90
31783;DHT22;18351;47.560;9.708;2024-03-22T07:51:17;11.10;99.90
31783;DHT22;18351;47.560;9.708;2024-03-22T07:53:43;11.20;99.90
31783;DHT22;18351;47.560;9.708;2024-03-22T07:56:08;11.30;99.90
31783;DHT22;18351;47.560;9.708;2024-03-22T07:58:34;11.30;99.90
31783;DHT22;18351;47.560;9.708;2024-03-22T08:00:59;11.40;99.90
31783;DHT22;18351;47.560;9.708;2024-03-22T08:03:25;11.40;99.90
31783;DHT22;18351;47.560;9.708;2024-03-22T08:05:51;11.50;99.90
31783;DHT22;18351;47.560;9.708;2024-03-22T08:08:16;11.40;99.90
31783;DHT22;18351;47.560;9.708;2024-03-22T08:10:43;11.50;99.90
31783;DHT22;18351;47.560;9.708;2024-03-22T08:13:08;11.40;99.90
31783;DHT22;18351;47.560;9.708;2024-03-22T08:15:35;11.50;99.90
31783;DHT22;18351;47.560;9.708;2024-03-22T08:18:01;11.60;99.90
31783;DHT22;18351;47.560;9.708;2024-03-22T08:20:26;11.70;99.90
31783;DHT22;18351;47.560;9.708;2024-03-22T08:22:52;11.70;99.90
31783;DHT22;18351;47.560;9.708;2024-03-22T08:25:17;11.80;99.90
31783;DHT22;18351;47.560;9.708;2024-03-22T08:27:46;11.90;99.90
31783;DHT22;18351;47.560;9.708;2024-03-22T08:30:12;11.90;99.90
31783;DHT22;18351;47.560;9.708;2024-03-22T08:32:37;12.00;99.90
31783;DHT22;18351;47.560;9.708;2024-03-22T08:35:03;12.10;99.90
31783;DHT22;18351;47.560;9.708;2024-03-22T08:37:33;12.20;99.90
31783;DHT22;18351;47.560;9.708;2024-03-22T08:39:59;12.30;99.90
31783;DHT22;18351;47.560;9.708;2024-03-22T08:42:25;12.40;99.90
31783;DHT22;18351;47.560;9.708;2024-03-22T08:44:50;12.60;99.90
31783;DHT22;18351;47.560;9.708;2024-03-22T08:47:16;12.60;99.90
31783;DHT22;18351;47.560;9.708;2024-03-22T08:49:41;12.70;99.90
31783;DHT22;18351;47.560;9.708;2024-03-22T08:52:09;12.80;99.90
31783;DHT22;18351;47.560;9.708;2024-03-22T08:54:34;12.90;99.90
31783;DHT22;18351;47.560;9.708;2024-03-22T08:57:00;13.00;99.90
31783;DHT22;18351;47.560;9.708;2024-03-22T08:59:25;13.10;99.90
31783;DHT22;18351;47.560;9.708;2024-03-22T09:01:52;13.30;99.90
31783;DHT22;18351;47.560;9.708;2024-03-22T09:04:17;13.40;99.90
31783;DHT22;18351;47.560;9.708;2024-03-22T09:06:43;13.50;99.90
31783;DHT22;18351;47.560;9.708;2024-03-22T09:09:08;13.60;99.90
31783;DHT22;18351;47.560;9.708;2024-03-22T09:11:34;13.70;99.90
31783;DHT22;18351;47.560;9.708;2024-03-22T09:14:00;13.80;99.90
31783;DHT22;18351;47.560;9.708;2024-03-22T09:16:25;13.80;99.90
31783;DHT22;18351;47.560;9.708;2024-03-22T09:18:51;13.90;99.90
31783;DHT22;18351;47.560;9.708;2024-03-22T09:21:16;14.00;99.90
31783;DHT22;18351;47.560;9.708;2024-03-22T09:23:42;14.10;99.90
31783;DHT22;18351;47.560;9.708;2024-03-22T09:26:07;14.10;99.90
31783;DHT22;18351;47.560;9.708;2024-03-22T09:28:33;14.10;99.90
31783;DHT22;18351;47.560;9.708;2024-03-22T09:31:06;14.10;99.90
31783;DHT22;18351;47.560;9.708;2024-03-22T09:33:33;14.30;99.90
31783;DHT22;18351;47.560;9.708;2024-03-22T09:35:59;14.50;99.90
31783;DHT22;18351;47.560;9.708;2024-03-22T09:38:24;14.50;99.90
31783;DHT22;18351;47.560;9.708;2024-03-22T09:40:50;14.70;99.90
31783;DHT22;18351;47.560;9.708;2024-03-22T09:43:20;14.80;99.90
31783;DHT22;18351;47.560;9.708;2024-03-22T09:45:50;14.90;99.90
31783;DHT22;18351;47.560;9.708;2024-03-22T09:48:18;15.00;99.90
31783;DHT22;18351;47.560;9.708;2024-03-22T09:50:46;15.10;99.90
31783;DHT22;18351;47.560;9.708;2024-03-22T09:53:13;15.20;99.90
31783;DHT22;18351;47.560;9.708;2024-03-22T09:55:39;15.30;99.90
31783;DHT22;18351;47.560;9.708;2024-03-22T09:58:09;15.50;99.90
31783;DHT22;18351;47.560;9.708;2024-03-22T10:00:35;15.50;99.90
31783;DHT22;18351;47.560;9.708;2024-03-22T10:03:01;15.50;99.90
31783;DHT22;18351;47.560;9.708;2024-03-22T10:05:29;15.40;99.90
31783;DHT22;18351;47.560;9.708;2024-03-22T10:07:55;15.40;99.90
31783;DHT22;18351;47.560;9.708;2024-03-22T10:10:21;15.30;99.90
31783;DHT22;18351;47.560;9.708;2024-03-22T10:12:47;15.30;99.90
31783;DHT22;18351;47.560;9.708;2024-03-22T10:15:13;15.40;99.90
31783;DHT22;18351;47.560;9.708;2024-03-22T10:17:39;15.50;99.90
31783;DHT22;18351;47.560;9.708;2024-03-22T10:20:06;15.60;99.90
31783;DHT22;18351;47.560;9.708;2024-03-22T10:22:56;15.60;99.90
31783;DHT22;18351;47.560;9.708;2024-03-22T10:25:28;15.70;99.90
31783;DHT22;18351;47.560;9.708;2024-03-22T10:27:55;15.70;99.90
31783;DHT22;18351;47.560;9.708;2024-03-22T10:30:22;15.60;99.90
31783;DHT22;18351;47.560;9.708;2024-03-22T10:32:48;15.60;99.90
31783;DHT22;18351;47.560;9.708;2024-03-22T10:35:15;15.50;99.90
31783;DHT22;18351;47.560;9.708;2024-03-22T10:37:41;15.60;99.90
31783;DHT22;18351;47.560;9.708;2024-03-22T10:40:07;15.50;99.90
31783;DHT22;18351;47.560;9.708;2024-03-22T10:42:35;15.60;99.90
31783;DHT22;18351;47.560;9.708;2024-03-22T10:45:05;15.80;99.90
31783;DHT22;18351;47.560;9.708;2024-03-22T10:47:32;15.90;99.90
31783;DHT22;18351;47.560;9.708;2024-03-22T10:52:41;16.10;99.90
31783;DHT22;18351;47.560;9.708;2024-03-22T10:55:14;16.20;99.90
31783;DHT22;18351;47.560;9.708;2024-03-22T10:57:40;16.20;99.50
31783;DHT22;18351;47.560;9.708;2024-03-22T11:00:09;16.20;98.50
31783;DHT22;18351;47.560;9.708;2024-03-22T11:02:36;16.30;97.80
31783;DHT22;18351;47.560;9.708;2024-03-22T11:05:03;16.40;98.90
31783;DHT22;18351;47.560;9.708;2024-03-22T11:07:29;16.50;98.80
31783;DHT22;18351;47.560;9.708;2024-03-22T11:10:01;16.70;98.50
31783;DHT22;18351;47.560;9.708;2024-03-22T11:12:28;16.70;97.40
31783;DHT22;18351;47.560;9.708;2024-03-22T11:14:58;16.90;96.80
31783;DHT22;18351;47.560;9.708;2024-03-22T11:17:23;17.00;96.70
31783;DHT22;18351;47.560;9.708;2024-03-22T11:19:51;17.20;95.40
31783;DHT22;18351;47.560;9.708;2024-03-22T11:22:17;17.20;95.50
31783;DHT22;18351;47.560;9.708;2024-03-22T11:24:43;17.30;93.80
31783;DHT22;18351;47.560;9.708;2024-03-22T11:27:10;17.30;95.50
31783;DHT22;18351;47.560;9.708;2024-03-22T11:29:37;17.50;95.10
31783;DHT22;18351;47.560;9.708;2024-03-22T11:32:06;17.60;94.80
31783;DHT22;18351;47.560;9.708;2024-03-22T11:34:35;17.70;93.50
31783;DHT22;18351;47.560;9.708;2024-03-22T11:37:00;17.80;93.60
31783;DHT22;18351;47.560;9.708;2024-03-22T11:39:26;17.90;92.90
31783;DHT22;18351;47.560;9.708;2024-03-22T11:41:51;18.00;93.50
31783;DHT22;18351;47.560;9.708;2024-03-22T11:44:17;18.20;93.20
31783;DHT22;18351;47.560;9.708;2024-03-22T11:46:44;18.30;92.90
31783;DHT22;18351;47.560;9.708;2024-03-22T11:49:11;18.40;92.70
31783;DHT22;18351;47.560;9.708;2024-03-22T11:51:36;18.50;92.00
31783;DHT22;18351;47.560;9.708;2024-03-22T11:54:03;18.60;92.10
31783;DHT22;18351;47.560;9.708;2024-03-22T11:56:28;18.60;91.20
31783;DHT22;18351;47.560;9.708;2024-03-22T11:59:00;18.60;90.90
31783;DHT22;18351;47.560;9.708;2024-03-22T12:01:26;18.60;90.30
31783;DHT22;18351;47.560;9.708;2024-03-22T12:03:52;18.60;89.10
31783;DHT22;18351;47.560;9.708;2024-03-22T12:06:18;18.70;87.80
31783;DHT22;18351;47.560;9.708;2024-03-22T12:08:45;18.80;87.10
31783;DHT22;18351;47.560;9.708;2024-03-22T12:11:11;18.90;87.60
31783;DHT22;18351;47.560;9.708;2024-03-22T12:13:38;18.90;88.10
31783;DHT22;18351;47.560;9.708;2024-03-22T12:16:04;19.00;88.70
31783;DHT22;18351;47.560;9.708;2024-03-22T12:18:30;19.10;87.10
31783;DHT22;18351;47.560;9.708;2024-03-22T12:20:56;19.10;87.90
31783;DHT22;18351;47.560;9.708;2024-03-22T12:23:21;19.20;87.30
31783;DHT22;18351;47.560;9.708;2024-03-22T12:25:47;19.30;87.10
31783;DHT22;18351;47.560;9.708;2024-03-22T12:28:12;19.30;85.30
31783;DHT22;18351;47.560;9.708;2024-03-22T12:30:39;19.40;85.10
31783;DHT22;18351;47.560;9.708;2024-03-22T12:33:05;19.50;84.70
31783;DHT22;18351;47.560;9.708;2024-03-22T12:35:36;19.50;83.40
31783;DHT22;18351;47.560;9.708;2024-03-22T12:38:01;19.60;83.40
31783;DHT22;18351;47.560;9.708;2024-03-22T12:40:29;19.60;82.80
31783;DHT22;18351;47.560;9.708;2024-03-22T12:42:55;19.70;82.90
31783;DHT22;18351;47.560;9.708;2024-03-22T12:48:42;20.00;82.20
31783;DHT22;18351;47.560;9.708;2024-03-22T12:51:08;20.20;81.10
31783;DHT22;18351;47.560;9.708;2024-03-22T12:53:34;20.20;80.40
31783;DHT22;18351;47.560;9.708;2024-03-22T12:55:59;20.20;79.40
31783;DHT22;18351;47.560;9.708;2024-03-22T12:58:25;20.10;79.50
31783;DHT22;18351;47.560;9.708;2024-03-22T13:00:50;20.20;79.90
31783;DHT22;18351;47.560;9.708;2024-03-22T13:03:16;20.30;77.30
31783;DHT22;18351;47.560;9.708;2024-03-22T13:05:42;20.30;79.70
31783;DHT22;18351;47.560;9.708;2024-03-22T13:08:07;20.40;78.10
31783;DHT22;18351;47.560;9.708;2024-03-22T13:10:33;20.40;78.00
31783;DHT22;18351;47.560;9.708;2024-03-22T13:12:59;20.40;78.70
31783;DHT22;18351;47.560;9.708;2024-03-22T13:15:24;20.30;77.10
31783;DHT22;18351;47.560;9.708;2024-03-22T13:17:51;20.30;77.50
31783;DHT22;18351;47.560;9.708;2024-03-22T13:20:18;20.20;77.90
31783;DHT22;18351;47.560;9.708;2024-03-22T13:22:44;20.30;80.30
31783;DHT22;18351;47.560;9.708;2024-03-22T13:25:09;20.30;76.10
31783;DHT22;18351;47.560;9.708;2024-03-22T13:27:37;20.30;77.30
31783;DHT22;18351;47.560;9.708;2024-03-22T13:30:05;20.40;77.50
31783;DHT22;18351;47.560;9.708;2024-03-22T13:32:31;20.30;76.80
31783;DHT22;18351;47.560;9.708;2024-03-22T13:34:56;20.20;76.10
31783;DHT22;18351;47.560;9.708;2024-03-22T13:37:22;20.20;75.90
31783;DHT22;18351;47.560;9.708;2024-03-22T13:39:49;20.20;76.50
31783;DHT22;18351;47.560;9.708;2024-03-22T13:42:14;20.30;75.80
31783;DHT22;18351;47.560;9.708;2024-03-22T13:44:41;20.20;70.20
31783;DHT22;18351;47.560;9.708;2024-03-22T13:47:07;20.00;68.70
31783;DHT22;18351;47.560;9.708;2024-03-22T13:49:32;20.10;70.50
31783;DHT22;18351;47.560;9.708;2024-03-22T13:51:58;20.00;67.20
31783;DHT22;18351;47.560;9.708;2024-03-22T13:54:24;19.70;70.30
31783;DHT22;18351;47.560;9.708;2024-03-22T13:56:50;19.70;73.10
31783;DHT22;18351;47.560;9.708;2024-03-22T13:59:15;19.70;72.10
31783;DHT22;18351;47.560;9.708;2024-03-22T14:01:41;19.60;70.40
31783;DHT22;18351;47.560;9.708;2024-03-22T14:04:10;19.50;71.70
31783;DHT22;18351;47.560;9.708;2024-03-22T14:06:37;19.60;69.60
31783;DHT22;18351;47.560;9.708;2024-03-22T14:09:03;19.70;72.10
31783;DHT22;18351;47.560;9.708;2024-03-22T14:11:30;19.90;67.00
31783;DHT22;18351;47.560;9.708;2024-03-22T14:13:57;20.10;66.50
31783;DHT22;18351;47.560;9.708;2024-03-22T14:16:22;20.10;61.80
31783;DHT22;18351;47.560;9.708;2024-03-22T14:18:48;20.20;63.00
31783;DHT22;18351;47.560;9.708;2024-03-22T14:21:14;20.30;67.30
31783;DHT22;18351;47.560;9.708;2024-03-22T14:23:50;20.50;67.40
31783;DHT22;18351;47.560;9.708;2024-03-22T14:26:17;20.60;66.00
31783;DHT22;18351;47.560;9.708;2024-03-22T14:28:43;20.80;63.10
31783;DHT22;18351;47.560;9.708;2024-03-22T14:31:09;20.90;61.60
31783;DHT22;18351;47.560;9.708;2024-03-22T14:33:36;21.10;63.20
31783;DHT22;18351;47.560;9.708;2024-03-22T14:36:06;21.20;62.70
31783;DHT22;18351;47.560;9.708;2024-03-22T14:38:32;21.30;62.30
31783;DHT22;18351;47.560;9.708;2024-03-22T14:40:58;21.40;62.00
31783;DHT22;18351;47.560;9.708;2024-03-22T14:43:24;21.30;60.50
31783;DHT22;18351;47.560;9.708;2024-03-22T14:45:50;21.00;61.10
31783;DHT22;18351;47.560;9.708;2024-03-22T14:48:21;20.90;62.70
31783;DHT22;18351;47.560;9.708;2024-03-22T14:50:47;20.70;56.30
31783;DHT22;18351;47.560;9.708;2024-03-22T14:53:13;20.70;59.50
31783;DHT22;18351;47.560;9.708;2024-03-22T14:55:39;20.80;60.80
31783;DHT22;18351;47.560;9.708;2024-03-22T14:58:06;20.90;62.00
31783;DHT22;18351;47.560;9.708;2024-03-22T15:00:32;20.90;60.40
31783;DHT22;18351;47.560;9.708;2024-03-22T15:02:57;20.90;62.90
31783;DHT22;18351;47.560;9.708;2024-03-22T15:05:23;21.00;60.90
31783;DHT22;18351;47.560;9.708;2024-03-22T15:07:48;21.00;60.60
31783;DHT22;18351;47.560;9.708;2024-03-22T15:10:14;21.10;59.10
31783;DHT22;18351;47.560;9.708;2024-03-22T15:12:40;21.00;60.30
31783;DHT22;18351;47.560;9.708;2024-03-22T15:15:06;21.00;60.20
31783;DHT22;18351;47.560;9.708;2024-03-22T15:17:33;20.80;58.80
31783;DHT22;18351;47.560;9.708;2024-03-22T15:19:59;20.80;60.30
31783;DHT22;18351;47.560;9.708;2024-03-22T15:22:25;20.80;59.60
31783;DHT22;18351;47.560;9.708;2024-03-22T15:24:50;20.80;60.30
31783;DHT22;18351;47.560;9.708;2024-03-22T15:27:17;20.70;58.40
31783;DHT22;18351;47.560;9.708;2024-03-22T15:29:42;20.70;57.40
31783;DHT22;18351;47.560;9.708;2024-03-22T15:32:08;20.60;60.50
31783;DHT22;18351;47.560;9.708;2024-03-22T15:34:33;20.60;59.20
31783;DHT22;18351;47.560;9.708;2024-03-22T15:36:59;20.50;59.10